North Sutton, NH (03260)

2:07 PM EDT on August 31, 2015 (GMT -0400)
Messer Pond | | Change Station
CLOSE
Current Station
Personal Weather Station
Location: New London, NH
Elevation: 1138 ft
Nearby Weather Stations

Elev 1138 ft 43.40 °N, 72.00 °W | Updated 6 minutes ago

Partly Cloudy
Partly Cloudy
79.3 °F
Feels Like 81 °F
N
11.9
Wind Variable Wind from West

Today
High -- | Low -- °F
--% Chance of Precip.
Yesterday
High -- | Low -- °F
Precip. -- in
6:10 AM 7:25 PM
Waning Gibbous, 94% visible
Pressure 29.90 in
Visibility 10.0 miles
Clouds Scattered Clouds 4800 ft
Mostly Cloudy 6000 ft
Heat Index 81 °F
Dew Point 63 °F
Humidity 58%
Rainfall 0.00 in
Snow Depth Not available.
UV 4 out of 12
Pollen 8.50 out of 12
Air Quality Not available.
Flu Activity Not available.
METAR KCON 311751Z AUTO 28007G15KT 10SM SCT048 BKN060 28/17 A2990 RMK AO2 SLP124 T02830172 10300 20200 56018
Pressure 29.90 in
Visibility 10.0 miles
Clouds Scattered Clouds 4800 ft
Mostly Cloudy 6000 ft
Heat Index 81 °F
Dew Point 63 °F
Humidity 58%
Rainfall 0.00 in
Snow Depth Not available.
UV 4 out of 12
Pollen 8.50 out of 12
Air Quality Not available.
Flu Activity Not available.
METAR KCON 311751Z AUTO 28007G15KT 10SM SCT048 BKN060 28/17 A2990 RMK AO2 SLP124 T02830172 10300 20200 56018

10-Day Weather Forecast

×

Almanac

Astronomy

Aug. 31, 2015 Rise Set
Actual Time
Civil Twilight
Nautical Twilight
Astronomical Twilight
Moon
Length of Visible Light
Length of Day
Tomorrow will be .
, % of the Moon is Illuminated

Today's Extremes

State Highs State Lows

Community

WunderPhotos

Upload Photos

1,851,324 photos uploaded!

WunderBlogs® & News

Nearby

Air Quality

  Air Quality AQ Index Pollutant
Not available.

Snow Depth

Station Depth Elevation

Earthquake Activity

City Distance Mag. Time & Date
Minimum magnitude displayed is 2.5.

Coastal Water Temperatures

Place Temperature

Stations

Nearby Weather Stations

Station Location Temp. Windchill Dew Point Humidity Wind Precip. Elev Updated Type